SGEN/ENO METAR and TAF weather

Enter ICAO airport designator
Station Type Date Time Source
SGEN METAR 2021/10/22 19:00 UTC NOAA

SGEN 221900Z 05005KT CAVOK 32/10 Q1006


Station Type Date Time Source
SGEN Decoded METAR 2021/10/22 19:00 UTC NOAA

Encarnacion, Paraguay (SGEN) 27-19S 055-50W 91M
Oct 22, 2021 - 03:00 PM EDT / 2021.10.22 1900 UTC
Wind: from the NE (050 degrees) at 6 MPH (5 KT):0
Visibility: greater than 7 mile(s):0
Temperature: 89 F (32 C)
Dew Point: 50 F (10 C)
Relative Humidity: 25%
Pressure (altimeter): 29.71 in. Hg (1006 hPa)
ob: SGEN 221900Z 05005KT CAVOK 32/10 Q1006
cycle: 19

Station Type Date Time Source
SGEN TAF 2021/10/22 18:00 UTC NOAA

TAF SGEN 221540Z 2218/2318 03007KT 9999 SCT033 TX30/2219Z TN19/2310Z
BECMG 2304/2308 VRB10KT 9999 -TSRA BKN027 FEW040CB
BECMG 2308/2310 7000 TSRA BKN021 FEW040CB PROB40
TEMPO 2314/2316 23020G30KT 3000 +TSRA OVC014 FEW040CB

Example: see airport list